sensor_id;sensor_type;location;lat;lon;timestamp;temperature;humidity
63017;DHT22;50274;45.640;11.756;2023-04-03T00:01:15;13.70;63.00
63017;DHT22;50274;45.640;11.756;2023-04-03T00:03:41;13.70;63.20
63017;DHT22;50274;45.640;11.756;2023-04-03T00:06:11;13.60;63.30
63017;DHT22;50274;45.640;11.756;2023-04-03T00:08:37;13.70;63.30
63017;DHT22;50274;45.640;11.756;2023-04-03T00:11:04;13.60;63.30
63017;DHT22;50274;45.640;11.756;2023-04-03T00:13:31;13.70;63.20
63017;DHT22;50274;45.640;11.756;2023-04-03T00:15:59;13.60;63.10
63017;DHT22;50274;45.640;11.756;2023-04-03T00:18:25;13.70;63.20
63017;DHT22;50274;45.640;11.756;2023-04-03T00:20:51;13.60;63.20
63017;DHT22;50274;45.640;11.756;2023-04-03T00:23:19;13.70;63.20
63017;DHT22;50274;45.640;11.756;2023-04-03T00:25:45;13.70;63.20
63017;DHT22;50274;45.640;11.756;2023-04-03T00:28:11;13.60;63.20
63017;DHT22;50274;45.640;11.756;2023-04-03T00:30:37;13.60;63.10
63017;DHT22;50274;45.640;11.756;2023-04-03T00:33:03;13.50;63.10
63017;DHT22;50274;45.640;11.756;2023-04-03T00:35:29;13.50;63.20
63017;DHT22;50274;45.640;11.756;2023-04-03T00:37:55;13.50;63.10
63017;DHT22;50274;45.640;11.756;2023-04-03T00:40:24;13.50;63.10
63017;DHT22;50274;45.640;11.756;2023-04-03T00:42:56;13.40;63.10
63017;DHT22;50274;45.640;11.756;2023-04-03T00:47:50;13.30;63.10
63017;DHT22;50274;45.640;11.756;2023-04-03T00:50:17;13.30;63.00
63017;DHT22;50274;45.640;11.756;2023-04-03T00:52:43;13.20;63.10
63017;DHT22;50274;45.640;11.756;2023-04-03T00:55:12;13.20;63.20
63017;DHT22;50274;45.640;11.756;2023-04-03T00:57:40;13.10;63.20
63017;DHT22;50274;45.640;11.756;2023-04-03T01:00:11;13.20;63.20
63017;DHT22;50274;45.640;11.756;2023-04-03T01:02:38;13.10;63.10
63017;DHT22;50274;45.640;11.756;2023-04-03T01:05:06;13.10;63.10
63017;DHT22;50274;45.640;11.756;2023-04-03T01:07:32;13.10;63.10
63017;DHT22;50274;45.640;11.756;2023-04-03T01:10:04;13.10;63.20
63017;DHT22;50274;45.640;11.756;2023-04-03T01:12:41;13.10;63.20
63017;DHT22;50274;45.640;11.756;2023-04-03T01:15:23;13.10;63.20
63017;DHT22;50274;45.640;11.756;2023-04-03T01:17:54;13.10;63.20
63017;DHT22;50274;45.640;11.756;2023-04-03T01:22:59;13.00;63.20
63017;DHT22;50274;45.640;11.756;2023-04-03T01:25:30;13.00;63.20
63017;DHT22;50274;45.640;11.756;2023-04-03T01:27:56;13.00;63.20
63017;DHT22;50274;45.640;11.756;2023-04-03T01:30:27;13.00;63.20
63017;DHT22;50274;45.640;11.756;2023-04-03T01:32:56;13.00;63.10
63017;DHT22;50274;45.640;11.756;2023-04-03T01:35:22;13.00;63.10
63017;DHT22;50274;45.640;11.756;2023-04-03T01:37:49;12.90;63.10
63017;DHT22;50274;45.640;11.756;2023-04-03T01:40:15;12.90;63.20
63017;DHT22;50274;45.640;11.756;2023-04-03T01:42:41;12.90;63.20
63017;DHT22;50274;45.640;11.756;2023-04-03T01:45:07;12.80;63.20
63017;DHT22;50274;45.640;11.756;2023-04-03T01:47:33;12.80;63.20
63017;DHT22;50274;45.640;11.756;2023-04-03T01:49:58;12.80;63.20
63017;DHT22;50274;45.640;11.756;2023-04-03T01:52:24;12.80;63.10
63017;DHT22;50274;45.640;11.756;2023-04-03T01:54:50;12.80;63.10
63017;DHT22;50274;45.640;11.756;2023-04-03T01:57:19;12.80;63.00
63017;DHT22;50274;45.640;11.756;2023-04-03T01:59:44;12.70;62.90
63017;DHT22;50274;45.640;11.756;2023-04-03T02:02:10;12.70;62.90
63017;DHT22;50274;45.640;11.756;2023-04-03T02:04:37;12.70;62.80
63017;DHT22;50274;45.640;11.756;2023-04-03T02:07:03;12.70;62.80
63017;DHT22;50274;45.640;11.756;2023-04-03T02:09:29;12.70;62.80
63017;DHT22;50274;45.640;11.756;2023-04-03T02:11:55;12.70;62.70
63017;DHT22;50274;45.640;11.756;2023-04-03T02:14:21;12.60;62.70
63017;DHT22;50274;45.640;11.756;2023-04-03T02:16:49;12.70;62.60
63017;DHT22;50274;45.640;11.756;2023-04-03T02:19:15;12.60;62.60
63017;DHT22;50274;45.640;11.756;2023-04-03T02:21:41;12.50;62.60
63017;DHT22;50274;45.640;11.756;2023-04-03T02:24:09;12.60;62.60
63017;DHT22;50274;45.640;11.756;2023-04-03T02:26:35;12.50;62.60
63017;DHT22;50274;45.640;11.756;2023-04-03T02:29:01;12.50;62.60
63017;DHT22;50274;45.640;11.756;2023-04-03T02:31:27;12.50;62.60
63017;DHT22;50274;45.640;11.756;2023-04-03T02:33:53;12.40;62.60
63017;DHT22;50274;45.640;11.756;2023-04-03T02:36:19;12.40;62.60
63017;DHT22;50274;45.640;11.756;2023-04-03T02:38:45;12.40;62.60
63017;DHT22;50274;45.640;11.756;2023-04-03T02:41:12;12.30;62.60
63017;DHT22;50274;45.640;11.756;2023-04-03T02:43:38;12.30;62.70
63017;DHT22;50274;45.640;11.756;2023-04-03T02:46:04;12.20;62.80
63017;DHT22;50274;45.640;11.756;2023-04-03T02:48:31;12.20;62.80
63017;DHT22;50274;45.640;11.756;2023-04-03T02:50:59;12.20;62.80
63017;DHT22;50274;45.640;11.756;2023-04-03T02:53:25;12.20;62.80
63017;DHT22;50274;45.640;11.756;2023-04-03T02:55:51;12.20;62.70
63017;DHT22;50274;45.640;11.756;2023-04-03T02:58:16;12.30;62.60
63017;DHT22;50274;45.640;11.756;2023-04-03T03:00:42;12.30;62.60
63017;DHT22;50274;45.640;11.756;2023-04-03T03:03:08;12.30;62.50
63017;DHT22;50274;45.640;11.756;2023-04-03T03:05:34;12.30;62.50
63017;DHT22;50274;45.640;11.756;2023-04-03T03:08:00;12.30;62.50
63017;DHT22;50274;45.640;11.756;2023-04-03T03:10:26;12.40;62.40
63017;DHT22;50274;45.640;11.756;2023-04-03T03:12:52;12.30;62.40
63017;DHT22;50274;45.640;11.756;2023-04-03T03:15:18;12.40;62.40
63017;DHT22;50274;45.640;11.756;2023-04-03T03:17:44;12.40;62.40
63017;DHT22;50274;45.640;11.756;2023-04-03T03:20:11;12.40;62.30
63017;DHT22;50274;45.640;11.756;2023-04-03T03:22:39;12.40;62.30
63017;DHT22;50274;45.640;11.756;2023-04-03T03:25:05;12.40;62.30
63017;DHT22;50274;45.640;11.756;2023-04-03T03:27:31;12.40;62.30
63017;DHT22;50274;45.640;11.756;2023-04-03T03:29:57;12.40;62.30
63017;DHT22;50274;45.640;11.756;2023-04-03T03:32:23;12.30;62.30
63017;DHT22;50274;45.640;11.756;2023-04-03T03:34:49;12.30;62.20
63017;DHT22;50274;45.640;11.756;2023-04-03T03:37:14;12.30;62.20
63017;DHT22;50274;45.640;11.756;2023-04-03T03:39:42;12.30;62.20
63017;DHT22;50274;45.640;11.756;2023-04-03T03:42:08;12.10;62.20
63017;DHT22;50274;45.640;11.756;2023-04-03T03:44:34;12.10;62.20
63017;DHT22;50274;45.640;11.756;2023-04-03T03:47:00;12.00;62.30
63017;DHT22;50274;45.640;11.756;2023-04-03T03:49:26;12.00;62.30
63017;DHT22;50274;45.640;11.756;2023-04-03T03:51:52;12.00;62.30
63017;DHT22;50274;45.640;11.756;2023-04-03T03:54:17;11.90;62.40
63017;DHT22;50274;45.640;11.756;2023-04-03T03:56:43;11.90;62.40
63017;DHT22;50274;45.640;11.756;2023-04-03T03:59:11;11.90;62.40
63017;DHT22;50274;45.640;11.756;2023-04-03T04:01:38;11.80;62.40
63017;DHT22;50274;45.640;11.756;2023-04-03T04:04:03;11.80;62.40
63017;DHT22;50274;45.640;11.756;2023-04-03T04:06:29;11.80;62.50
63017;DHT22;50274;45.640;11.756;2023-04-03T04:08:55;11.70;62.50
63017;DHT22;50274;45.640;11.756;2023-04-03T04:11:21;11.70;62.50
63017;DHT22;50274;45.640;11.756;2023-04-03T04:13:49;11.70;62.60
63017;DHT22;50274;45.640;11.756;2023-04-03T04:16:15;11.60;62.60
63017;DHT22;50274;45.640;11.756;2023-04-03T04:18:41;11.60;62.60
63017;DHT22;50274;45.640;11.756;2023-04-03T04:21:07;11.60;62.70
63017;DHT22;50274;45.640;11.756;2023-04-03T04:23:33;11.60;62.70
63017;DHT22;50274;45.640;11.756;2023-04-03T04:25:58;11.50;62.70
63017;DHT22;50274;45.640;11.756;2023-04-03T04:28:24;11.50;62.80
63017;DHT22;50274;45.640;11.756;2023-04-03T04:30:50;11.50;62.80
63017;DHT22;50274;45.640;11.756;2023-04-03T04:33:16;11.50;62.90
63017;DHT22;50274;45.640;11.756;2023-04-03T04:35:42;11.50;63.00
63017;DHT22;50274;45.640;11.756;2023-04-03T04:38:09;11.40;63.10
63017;DHT22;50274;45.640;11.756;2023-04-03T04:40:35;11.50;63.20
63017;DHT22;50274;45.640;11.756;2023-04-03T04:43:03;11.50;63.20
63017;DHT22;50274;45.640;11.756;2023-04-03T04:45:29;11.40;63.20
63017;DHT22;50274;45.640;11.756;2023-04-03T04:47:55;11.40;63.30
63017;DHT22;50274;45.640;11.756;2023-04-03T04:50:22;11.40;63.30
63017;DHT22;50274;45.640;11.756;2023-04-03T04:52:47;11.40;63.40
63017;DHT22;50274;45.640;11.756;2023-04-03T04:55:13;11.40;63.50
63017;DHT22;50274;45.640;11.756;2023-04-03T04:57:41;11.30;63.60
63017;DHT22;50274;45.640;11.756;2023-04-03T05:00:10;11.40;63.70
63017;DHT22;50274;45.640;11.756;2023-04-03T05:02:36;11.30;63.70
63017;DHT22;50274;45.640;11.756;2023-04-03T05:05:02;11.30;63.80
63017;DHT22;50274;45.640;11.756;2023-04-03T05:07:28;11.30;63.80
63017;DHT22;50274;45.640;11.756;2023-04-03T05:09:54;11.30;63.90
63017;DHT22;50274;45.640;11.756;2023-04-03T05:12:20;11.30;63.90
63017;DHT22;50274;45.640;11.756;2023-04-03T05:14:49;11.30;64.00
63017;DHT22;50274;45.640;11.756;2023-04-03T05:17:14;11.30;64.00
63017;DHT22;50274;45.640;11.756;2023-04-03T05:19:43;11.30;64.00
63017;DHT22;50274;45.640;11.756;2023-04-03T05:22:09;11.30;64.00
63017;DHT22;50274;45.640;11.756;2023-04-03T05:24:39;11.30;64.10
63017;DHT22;50274;45.640;11.756;2023-04-03T05:27:07;11.30;64.10
63017;DHT22;50274;45.640;11.756;2023-04-03T05:29:35;11.30;64.20
63017;DHT22;50274;45.640;11.756;2023-04-03T05:32:01;11.30;64.20
63017;DHT22;50274;45.640;11.756;2023-04-03T05:34:27;11.30;64.30
63017;DHT22;50274;45.640;11.756;2023-04-03T05:36:53;11.30;64.30
63017;DHT22;50274;45.640;11.756;2023-04-03T05:39:19;11.30;64.40
63017;DHT22;50274;45.640;11.756;2023-04-03T05:41:45;11.30;64.40
63017;DHT22;50274;45.640;11.756;2023-04-03T05:44:11;11.40;64.50
63017;DHT22;50274;45.640;11.756;2023-04-03T05:46:36;11.40;64.50
63017;DHT22;50274;45.640;11.756;2023-04-03T05:49:02;11.40;64.70
63017;DHT22;50274;45.640;11.756;2023-04-03T05:51:32;11.50;64.70
63017;DHT22;50274;45.640;11.756;2023-04-03T05:54:09;11.50;64.80
63017;DHT22;50274;45.640;11.756;2023-04-03T05:56:39;11.60;64.80
63017;DHT22;50274;45.640;11.756;2023-04-03T05:59:05;11.70;64.90
63017;DHT22;50274;45.640;11.756;2023-04-03T06:01:31;11.80;65.00
63017;DHT22;50274;45.640;11.756;2023-04-03T06:03:57;11.80;65.00
63017;DHT22;50274;45.640;11.756;2023-04-03T06:06:24;11.90;65.00
63017;DHT22;50274;45.640;11.756;2023-04-03T06:08:50;12.00;65.00
63017;DHT22;50274;45.640;11.756;2023-04-03T06:11:16;12.00;65.00
63017;DHT22;50274;45.640;11.756;2023-04-03T06:13:42;12.10;64.80
63017;DHT22;50274;45.640;11.756;2023-04-03T06:16:11;12.10;64.80
63017;DHT22;50274;45.640;11.756;2023-04-03T06:18:40;12.30;64.50
63017;DHT22;50274;45.640;11.756;2023-04-03T06:21:06;12.30;64.20
63017;DHT22;50274;45.640;11.756;2023-04-03T06:23:33;12.40;63.60
63017;DHT22;50274;45.640;11.756;2023-04-03T06:25:59;12.50;63.40
63017;DHT22;50274;45.640;11.756;2023-04-03T06:28:28;12.50;63.10
63017;DHT22;50274;45.640;11.756;2023-04-03T06:30:54;12.60;62.90
63017;DHT22;50274;45.640;11.756;2023-04-03T06:33:22;12.60;62.50
63017;DHT22;50274;45.640;11.756;2023-04-03T06:35:54;12.70;62.40
63017;DHT22;50274;45.640;11.756;2023-04-03T06:38:20;12.70;62.40
63017;DHT22;50274;45.640;11.756;2023-04-03T06:40:46;12.80;62.20
63017;DHT22;50274;45.640;11.756;2023-04-03T06:43:14;12.90;61.70
63017;DHT22;50274;45.640;11.756;2023-04-03T06:45:40;13.00;61.60
63017;DHT22;50274;45.640;11.756;2023-04-03T06:48:06;13.10;61.10
63017;DHT22;50274;45.640;11.756;2023-04-03T06:50:32;13.10;61.10
63017;DHT22;50274;45.640;11.756;2023-04-03T06:52:58;13.20;61.20
63017;DHT22;50274;45.640;11.756;2023-04-03T06:55:26;13.30;61.00
63017;DHT22;50274;45.640;11.756;2023-04-03T06:57:52;13.40;60.70
63017;DHT22;50274;45.640;11.756;2023-04-03T07:00:18;13.50;60.10
63017;DHT22;50274;45.640;11.756;2023-04-03T07:02:44;13.50;59.60
63017;DHT22;50274;45.640;11.756;2023-04-03T07:05:16;13.30;59.80
63017;DHT22;50274;45.640;11.756;2023-04-03T07:07:41;13.30;60.20
63017;DHT22;50274;45.640;11.756;2023-04-03T07:10:08;13.30;60.40
63017;DHT22;50274;45.640;11.756;2023-04-03T07:12:36;13.30;60.40
63017;DHT22;50274;45.640;11.756;2023-04-03T07:15:04;13.30;60.50
63017;DHT22;50274;45.640;11.756;2023-04-03T07:17:30;13.20;60.70
63017;DHT22;50274;45.640;11.756;2023-04-03T07:19:56;13.20;60.90
63017;DHT22;50274;45.640;11.756;2023-04-03T07:22:22;13.20;61.20
63017;DHT22;50274;45.640;11.756;2023-04-03T07:24:48;13.20;61.40
63017;DHT22;50274;45.640;11.756;2023-04-03T07:27:14;13.20;61.70
63017;DHT22;50274;45.640;11.756;2023-04-03T07:29:40;13.30;62.00
63017;DHT22;50274;45.640;11.756;2023-04-03T07:32:06;13.30;61.20
63017;DHT22;50274;45.640;11.756;2023-04-03T07:34:32;13.20;61.20
63017;DHT22;50274;45.640;11.756;2023-04-03T07:36:58;13.10;61.60
63017;DHT22;50274;45.640;11.756;2023-04-03T07:39:25;13.10;61.00
63017;DHT22;50274;45.640;11.756;2023-04-03T07:41:51;13.10;60.90
63017;DHT22;50274;45.640;11.756;2023-04-03T07:44:17;13.10;60.90
63017;DHT22;50274;45.640;11.756;2023-04-03T07:46:43;13.10;60.10
63017;DHT22;50274;45.640;11.756;2023-04-03T07:49:09;13.20;59.40
63017;DHT22;50274;45.640;11.756;2023-04-03T07:51:35;13.10;59.60
63017;DHT22;50274;45.640;11.756;2023-04-03T07:54:01;13.20;59.60
63017;DHT22;50274;45.640;11.756;2023-04-03T07:56:27;13.20;59.70
63017;DHT22;50274;45.640;11.756;2023-04-03T07:58:53;13.20;59.30
63017;DHT22;50274;45.640;11.756;2023-04-03T08:01:19;13.30;59.40
63017;DHT22;50274;45.640;11.756;2023-04-03T08:03:45;13.30;59.60
63017;DHT22;50274;45.640;11.756;2023-04-03T08:06:11;13.40;59.50
63017;DHT22;50274;45.640;11.756;2023-04-03T08:08:37;13.40;58.80
63017;DHT22;50274;45.640;11.756;2023-04-03T08:11:06;13.50;58.70
63017;DHT22;50274;45.640;11.756;2023-04-03T08:13:34;13.50;58.90
63017;DHT22;50274;45.640;11.756;2023-04-03T08:16:16;13.60;58.60
63017;DHT22;50274;45.640;11.756;2023-04-03T08:18:42;13.70;58.30
63017;DHT22;50274;45.640;11.756;2023-04-03T08:21:10;13.80;58.10
63017;DHT22;50274;45.640;11.756;2023-04-03T08:23:37;13.80;57.90
63017;DHT22;50274;45.640;11.756;2023-04-03T08:26:14;13.90;57.80
63017;DHT22;50274;45.640;11.756;2023-04-03T08:28:41;14.00;58.00
63017;DHT22;50274;45.640;11.756;2023-04-03T08:31:10;14.20;57.90
63017;DHT22;50274;45.640;11.756;2023-04-03T08:33:38;14.30;57.80
63017;DHT22;50274;45.640;11.756;2023-04-03T08:36:05;14.40;57.30
63017;DHT22;50274;45.640;11.756;2023-04-03T08:38:31;14.50;57.20
63017;DHT22;50274;45.640;11.756;2023-04-03T08:44:07;14.60;56.40
63017;DHT22;50274;45.640;11.756;2023-04-03T08:49:51;14.70;55.80
63017;DHT22;50274;45.640;11.756;2023-04-03T08:52:23;14.70;55.20
63017;DHT22;50274;45.640;11.756;2023-04-03T08:54:55;14.70;53.90
63017;DHT22;50274;45.640;11.756;2023-04-03T08:57:38;14.70;54.40
63017;DHT22;50274;45.640;11.756;2023-04-03T09:00:15;14.70;53.20
63017;DHT22;50274;45.640;11.756;2023-04-03T09:02:51;14.80;53.20
63017;DHT22;50274;45.640;11.756;2023-04-03T09:08:24;15.00;52.90
63017;DHT22;50274;45.640;11.756;2023-04-03T09:13:57;15.30;53.00
63017;DHT22;50274;45.640;11.756;2023-04-03T09:22:07;15.30;51.90
63017;DHT22;50274;45.640;11.756;2023-04-03T09:24:44;15.30;52.20
63017;DHT22;50274;45.640;11.756;2023-04-03T09:27:11;15.30;52.60
63017;DHT22;50274;45.640;11.756;2023-04-03T09:29:42;15.30;52.70
63017;DHT22;50274;45.640;11.756;2023-04-03T09:32:37;15.30;51.40
63017;DHT22;50274;45.640;11.756;2023-04-03T09:35:30;15.30;51.10
63017;DHT22;50274;45.640;11.756;2023-04-03T09:40:38;15.30;51.30
63017;DHT22;50274;45.640;11.756;2023-04-03T09:43:28;15.40;51.10
63017;DHT22;50274;45.640;11.756;2023-04-03T09:46:33;15.60;51.50
63017;DHT22;50274;45.640;11.756;2023-04-03T09:49:03;15.70;51.40
63017;DHT22;50274;45.640;11.756;2023-04-03T09:51:30;15.80;50.30
63017;DHT22;50274;45.640;11.756;2023-04-03T09:53:59;15.80;50.60
63017;DHT22;50274;45.640;11.756;2023-04-03T09:56:29;15.90;50.80
63017;DHT22;50274;45.640;11.756;2023-04-03T10:01:28;15.90;49.50
63017;DHT22;50274;45.640;11.756;2023-04-03T10:06:35;15.80;49.90
63017;DHT22;50274;45.640;11.756;2023-04-03T10:09:05;15.70;50.30
63017;DHT22;50274;45.640;11.756;2023-04-03T10:11:32;15.80;49.90
63017;DHT22;50274;45.640;11.756;2023-04-03T10:14:02;15.80;48.40
63017;DHT22;50274;45.640;11.756;2023-04-03T10:16:38;15.70;48.60
63017;DHT22;50274;45.640;11.756;2023-04-03T10:24:28;15.70;48.50
63017;DHT22;50274;45.640;11.756;2023-04-03T10:27:04;15.70;47.50
63017;DHT22;50274;45.640;11.756;2023-04-03T10:32:45;15.80;48.00
63017;DHT22;50274;45.640;11.756;2023-04-03T10:38:32;15.90;47.80
63017;DHT22;50274;45.640;11.756;2023-04-03T10:44:40;16.00;47.90
63017;DHT22;50274;45.640;11.756;2023-04-03T10:47:32;16.00;47.30
63017;DHT22;50274;45.640;11.756;2023-04-03T10:57:30;16.00;47.90
63017;DHT22;50274;45.640;11.756;2023-04-03T11:00:03;16.20;47.60
63017;DHT22;50274;45.640;11.756;2023-04-03T11:02:53;16.50;47.30
63017;DHT22;50274;45.640;11.756;2023-04-03T11:05:43;16.60;47.00
63017;DHT22;50274;45.640;11.756;2023-04-03T11:08:33;16.80;47.40
63017;DHT22;50274;45.640;11.756;2023-04-03T11:11:10;17.10;47.20
63017;DHT22;50274;45.640;11.756;2023-04-03T11:13:57;17.10;46.20
63017;DHT22;50274;45.640;11.756;2023-04-03T11:16:27;17.00;45.90
63017;DHT22;50274;45.640;11.756;2023-04-03T11:19:01;17.00;45.90
63017;DHT22;50274;45.640;11.756;2023-04-03T11:21:29;16.90;45.30
63017;DHT22;50274;45.640;11.756;2023-04-03T11:23:57;16.90;45.50
63017;DHT22;50274;45.640;11.756;2023-04-03T11:26:29;17.10;45.40
63017;DHT22;50274;45.640;11.756;2023-04-03T11:29:03;17.00;45.40
63017;DHT22;50274;45.640;11.756;2023-04-03T11:34:46;16.80;45.80
63017;DHT22;50274;45.640;11.756;2023-04-03T11:37:34;17.00;45.30
63017;DHT22;50274;45.640;11.756;2023-04-03T11:42:49;17.40;45.20
63017;DHT22;50274;45.640;11.756;2023-04-03T11:47:55;17.40;45.30
63017;DHT22;50274;45.640;11.756;2023-04-03T11:50:41;17.20;45.70
63017;DHT22;50274;45.640;11.756;2023-04-03T12:00:47;17.60;45.70
63017;DHT22;50274;45.640;11.756;2023-04-03T12:03:32;17.60;44.10
63017;DHT22;50274;45.640;11.756;2023-04-03T12:16:25;17.70;43.50
63017;DHT22;50274;45.640;11.756;2023-04-03T12:19:03;18.10;42.50
63017;DHT22;50274;45.640;11.756;2023-04-03T12:37:57;19.70;40.70
63017;DHT22;50274;45.640;11.756;2023-04-03T12:48:26;19.10;40.80
63017;DHT22;50274;45.640;11.756;2023-04-03T12:50:54;18.80;41.50
63017;DHT22;50274;45.640;11.756;2023-04-03T12:53:27;18.60;41.80
63017;DHT22;50274;45.640;11.756;2023-04-03T12:56:20;18.50;42.30
63017;DHT22;50274;45.640;11.756;2023-04-03T12:58:47;18.40;41.20
63017;DHT22;50274;45.640;11.756;2023-04-03T13:01:17;18.20;42.40
63017;DHT22;50274;45.640;11.756;2023-04-03T13:03:57;18.10;41.90
63017;DHT22;50274;45.640;11.756;2023-04-03T13:06:30;18.40;42.50
63017;DHT22;50274;45.640;11.756;2023-04-03T13:08:59;18.90;41.60
63017;DHT22;50274;45.640;11.756;2023-04-03T13:11:30;19.40;40.30
63017;DHT22;50274;45.640;11.756;2023-04-03T13:14:04;19.80;39.40
63017;DHT22;50274;45.640;11.756;2023-04-03T13:16:33;20.10;37.90
63017;DHT22;50274;45.640;11.756;2023-04-03T13:18:59;20.20;37.50
63017;DHT22;50274;45.640;11.756;2023-04-03T13:21:34;20.30;36.80
63017;DHT22;50274;45.640;11.756;2023-04-03T13:24:05;20.40;36.80
63017;DHT22;50274;45.640;11.756;2023-04-03T13:26:33;20.50;36.80
63017;DHT22;50274;45.640;11.756;2023-04-03T13:29:07;20.30;36.30
63017;DHT22;50274;45.640;11.756;2023-04-03T13:31:46;20.20;36.20
63017;DHT22;50274;45.640;11.756;2023-04-03T13:34:17;20.00;36.80
63017;DHT22;50274;45.640;11.756;2023-04-03T13:37:18;19.60;36.70
63017;DHT22;50274;45.640;11.756;2023-04-03T13:39:46;19.70;37.60
63017;DHT22;50274;45.640;11.756;2023-04-03T13:42:27;19.90;36.60
63017;DHT22;50274;45.640;11.756;2023-04-03T13:47:51;20.40;37.30
63017;DHT22;50274;45.640;11.756;2023-04-03T13:50:24;20.40;35.50
63017;DHT22;50274;45.640;11.756;2023-04-03T13:53:12;19.90;36.00
63017;DHT22;50274;45.640;11.756;2023-04-03T13:58:32;19.20;37.80
63017;DHT22;50274;45.640;11.756;2023-04-03T14:01:11;19.00;38.20
63017;DHT22;50274;45.640;11.756;2023-04-03T14:03:43;18.80;38.20
63017;DHT22;50274;45.640;11.756;2023-04-03T14:06:16;18.60;38.90
63017;DHT22;50274;45.640;11.756;2023-04-03T14:08:44;18.40;38.50
63017;DHT22;50274;45.640;11.756;2023-04-03T14:11:20;18.20;38.80
63017;DHT22;50274;45.640;11.756;2023-04-03T14:13:50;18.00;38.90
63017;DHT22;50274;45.640;11.756;2023-04-03T14:16:22;17.80;39.60
63017;DHT22;50274;45.640;11.756;2023-04-03T14:18:53;17.70;40.30
63017;DHT22;50274;45.640;11.756;2023-04-03T14:21:20;17.50;40.20
63017;DHT22;50274;45.640;11.756;2023-04-03T14:23:47;17.40;40.10
63017;DHT22;50274;45.640;11.756;2023-04-03T14:26:20;17.40;40.80
63017;DHT22;50274;45.640;11.756;2023-04-03T14:28:52;17.50;40.80
63017;DHT22;50274;45.640;11.756;2023-04-03T14:31:19;17.60;39.30
63017;DHT22;50274;45.640;11.756;2023-04-03T14:33:48;17.60;39.00
63017;DHT22;50274;45.640;11.756;2023-04-03T14:36:22;17.60;39.50
63017;DHT22;50274;45.640;11.756;2023-04-03T14:38:54;17.70;39.40
63017;DHT22;50274;45.640;11.756;2023-04-03T14:41:26;17.90;38.10
63017;DHT22;50274;45.640;11.756;2023-04-03T14:43:54;18.00;38.30
63017;DHT22;50274;45.640;11.756;2023-04-03T14:46:44;18.00;38.40
63017;DHT22;50274;45.640;11.756;2023-04-03T14:49:15;17.80;38.80
63017;DHT22;50274;45.640;11.756;2023-04-03T14:51:45;17.60;37.70
63017;DHT22;50274;45.640;11.756;2023-04-03T14:54:14;17.40;38.30
63017;DHT22;50274;45.640;11.756;2023-04-03T14:56:41;17.20;38.70
63017;DHT22;50274;45.640;11.756;2023-04-03T14:59:12;17.00;39.00
63017;DHT22;50274;45.640;11.756;2023-04-03T15:01:41;16.80;39.20
63017;DHT22;50274;45.640;11.756;2023-04-03T15:04:13;16.70;39.70
63017;DHT22;50274;45.640;11.756;2023-04-03T15:06:40;16.60;39.10
63017;DHT22;50274;45.640;11.756;2023-04-03T15:09:18;16.40;38.40
63017;DHT22;50274;45.640;11.756;2023-04-03T15:11:49;16.20;39.40
63017;DHT22;50274;45.640;11.756;2023-04-03T15:14:15;16.00;39.90
63017;DHT22;50274;45.640;11.756;2023-04-03T15:16:44;15.90;40.30
63017;DHT22;50274;45.640;11.756;2023-04-03T15:19:11;15.80;40.00
63017;DHT22;50274;45.640;11.756;2023-04-03T15:21:39;15.70;40.40
63017;DHT22;50274;45.640;11.756;2023-04-03T15:24:10;15.70;40.50
63017;DHT22;50274;45.640;11.756;2023-04-03T15:26:39;15.60;41.00
63017;DHT22;50274;45.640;11.756;2023-04-03T15:29:07;15.50;41.40
63017;DHT22;50274;45.640;11.756;2023-04-03T15:31:33;15.50;41.50
63017;DHT22;50274;45.640;11.756;2023-04-03T15:33:59;15.50;39.70
63017;DHT22;50274;45.640;11.756;2023-04-03T15:36:27;15.50;39.50
63017;DHT22;50274;45.640;11.756;2023-04-03T15:38:53;15.40;39.90
63017;DHT22;50274;45.640;11.756;2023-04-03T15:41:25;15.30;39.70
63017;DHT22;50274;45.640;11.756;2023-04-03T15:43:53;15.30;39.40
63017;DHT22;50274;45.640;11.756;2023-04-03T15:46:21;15.30;39.10
63017;DHT22;50274;45.640;11.756;2023-04-03T15:48:47;15.20;39.80
63017;DHT22;50274;45.640;11.756;2023-04-03T15:51:16;15.10;40.10
63017;DHT22;50274;45.640;11.756;2023-04-03T15:53:41;15.10;40.20
63017;DHT22;50274;45.640;11.756;2023-04-03T15:56:10;15.10;40.40
63017;DHT22;50274;45.640;11.756;2023-04-03T15:58:37;15.10;40.50
63017;DHT22;50274;45.640;11.756;2023-04-03T16:01:05;15.10;40.60
63017;DHT22;50274;45.640;11.756;2023-04-03T16:03:31;15.10;40.10
63017;DHT22;50274;45.640;11.756;2023-04-03T16:05:57;15.10;40.10
63017;DHT22;50274;45.640;11.756;2023-04-03T16:08:23;15.10;40.30
63017;DHT22;50274;45.640;11.756;2023-04-03T16:10:50;15.10;40.40
63017;DHT22;50274;45.640;11.756;2023-04-03T16:13:16;15.10;40.10
63017;DHT22;50274;45.640;11.756;2023-04-03T16:15:46;15.10;40.40
63017;DHT22;50274;45.640;11.756;2023-04-03T16:18:14;15.10;40.70
63017;DHT22;50274;45.640;11.756;2023-04-03T16:20:40;15.10;40.60
63017;DHT22;50274;45.640;11.756;2023-04-03T16:23:11;15.10;40.70
63017;DHT22;50274;45.640;11.756;2023-04-03T16:25:38;15.00;40.70
63017;DHT22;50274;45.640;11.756;2023-04-03T16:28:04;15.00;41.00
63017;DHT22;50274;45.640;11.756;2023-04-03T16:30:29;14.90;40.90
63017;DHT22;50274;45.640;11.756;2023-04-03T16:32:56;14.80;40.40
63017;DHT22;50274;45.640;11.756;2023-04-03T16:35:22;14.80;40.00
63017;DHT22;50274;45.640;11.756;2023-04-03T16:37:48;14.70;40.10
63017;DHT22;50274;45.640;11.756;2023-04-03T16:40:14;14.60;40.10
63017;DHT22;50274;45.640;11.756;2023-04-03T16:42:40;14.60;40.50
63017;DHT22;50274;45.640;11.756;2023-04-03T16:45:06;14.50;40.70
63017;DHT22;50274;45.640;11.756;2023-04-03T16:47:32;14.40;41.30
63017;DHT22;50274;45.640;11.756;2023-04-03T16:49:58;14.30;41.80
63017;DHT22;50274;45.640;11.756;2023-04-03T16:52:24;14.30;42.00
63017;DHT22;50274;45.640;11.756;2023-04-03T16:54:50;14.20;42.20
63017;DHT22;50274;45.640;11.756;2023-04-03T16:57:21;14.10;42.20
63017;DHT22;50274;45.640;11.756;2023-04-03T16:59:47;14.10;42.50
63017;DHT22;50274;45.640;11.756;2023-04-03T17:02:13;14.10;42.80
63017;DHT22;50274;45.640;11.756;2023-04-03T17:04:39;14.10;42.70
63017;DHT22;50274;45.640;11.756;2023-04-03T17:07:05;14.00;42.70
63017;DHT22;50274;45.640;11.756;2023-04-03T17:09:32;14.00;42.10
63017;DHT22;50274;45.640;11.756;2023-04-03T17:11:58;14.00;42.40
63017;DHT22;50274;45.640;11.756;2023-04-03T17:14:24;14.00;42.80
63017;DHT22;50274;45.640;11.756;2023-04-03T17:16:51;13.90;43.10